createdAt,value
2023-03-17T00:01:54.088Z,61.50
2023-03-17T00:04:22.490Z,61.50
2023-03-17T00:06:49.465Z,61.50
2023-03-17T00:09:18.173Z,61.60
2023-03-17T00:11:46.357Z,61.50
2023-03-17T00:14:13.243Z,61.40
2023-03-17T00:16:43.801Z,61.50
2023-03-17T00:19:20.083Z,61.50
2023-03-17T00:26:43.472Z,61.70
2023-03-17T00:29:10.625Z,61.60
2023-03-17T00:31:39.127Z,61.50
2023-03-17T00:36:35.801Z,61.60
2023-03-17T00:39:06.461Z,61.70
2023-03-17T00:41:34.192Z,61.70
2023-03-17T00:46:35.711Z,61.60
2023-03-17T00:49:24.320Z,61.60
2023-03-17T00:51:51.839Z,61.60
2023-03-17T00:54:20.894Z,61.50
2023-03-17T00:56:49.355Z,61.50
2023-03-17T00:59:25.386Z,61.80
2023-03-17T01:01:52.185Z,62.40
2023-03-17T01:06:49.365Z,61.80
2023-03-17T01:09:20.405Z,61.70
2023-03-17T01:14:15.729Z,61.80
2023-03-17T01:19:12.993Z,61.80
2023-03-17T01:24:08.357Z,61.70
2023-03-17T01:31:30.498Z,61.90
2023-03-17T01:33:58.054Z,62.10
2023-03-17T01:43:50.192Z,62.10
2023-03-17T01:46:25.513Z,62.20
2023-03-17T01:49:10.761Z,62.20
2023-03-17T01:52:02.567Z,62.50
2023-03-17T01:54:48.180Z,62.50
2023-03-17T01:57:15.012Z,62.50
2023-03-17T01:59:53.462Z,62.60
2023-03-17T02:02:32.335Z,62.70
2023-03-17T02:07:28.042Z,62.90
2023-03-17T02:09:57.131Z,62.80
2023-03-17T02:12:27.100Z,62.70
2023-03-17T02:17:24.001Z,62.70
2023-03-17T02:22:20.034Z,62.80
2023-03-17T02:24:59.509Z,62.80
2023-03-17T02:27:34.814Z,62.80
2023-03-17T02:42:20.193Z,62.80
2023-03-17T02:47:14.774Z,62.80
2023-03-17T02:49:43.092Z,62.70
2023-03-17T02:52:09.999Z,62.70
2023-03-17T02:57:04.478Z,62.70
2023-03-17T03:04:26.309Z,62.90
2023-03-17T03:13:33.684Z,62.90
2023-03-17T03:16:00.697Z,63.00
2023-03-17T03:25:49.766Z,63.10
2023-03-17T03:30:44.789Z,62.80
2023-03-17T03:33:13.358Z,62.90
2023-03-17T03:35:40.766Z,62.90
2023-03-17T03:38:08.788Z,63.10
2023-03-17T03:40:37.087Z,63.20
2023-03-17T03:43:19.855Z,63.10
2023-03-17T03:48:16.827Z,63.10
2023-03-17T03:50:43.839Z,63.10
2023-03-17T04:03:01.672Z,63.10
2023-03-17T04:05:28.643Z,63.10
2023-03-17T04:10:23.301Z,63.10
2023-03-17T04:12:50.370Z,63.00
2023-03-17T04:15:19.776Z,63.10
2023-03-17T04:20:15.441Z,63.30
2023-03-17T04:22:43.005Z,63.30
2023-03-17T04:25:13.554Z,63.30
2023-03-17T04:27:41.866Z,63.30
2023-03-17T04:30:13.579Z,63.30
2023-03-17T04:32:41.694Z,63.30
2023-03-17T04:35:19.492Z,63.30
2023-03-17T04:40:16.173Z,63.30
2023-03-17T04:45:12.706Z,63.30
2023-03-17T04:50:08.950Z,63.20
2023-03-17T04:52:36.936Z,63.20
2023-03-17T04:55:05.615Z,63.20
2023-03-17T04:57:32.606Z,63.10
2023-03-17T05:00:03.466Z,63.20
2023-03-17T05:04:57.978Z,63.30
2023-03-17T05:12:19.405Z,63.50
2023-03-17T05:14:46.710Z,63.50
2023-03-17T05:19:41.097Z,63.50
2023-03-17T05:29:30.186Z,63.80
2023-03-17T05:41:47.101Z,63.90
2023-03-17T05:44:14.561Z,63.90
2023-03-17T05:54:04.473Z,63.90
2023-03-17T05:56:33.775Z,64.00
2023-03-17T05:59:03.223Z,64.10
2023-03-17T06:06:28.704Z,64.10
2023-03-17T06:08:56.729Z,64.20
2023-03-17T06:28:38.762Z,64.60
2023-03-17T06:33:35.903Z,64.60
2023-03-17T06:36:03.319Z,64.80
2023-03-17T07:13:02.412Z,66.30
2023-03-17T07:15:34.719Z,66.40
2023-03-17T07:18:02.476Z,66.50
2023-03-17T07:25:24.513Z,67.00
2023-03-17T07:30:19.365Z,67.20
2023-03-17T07:32:47.911Z,67.40
2023-03-17T07:35:16.352Z,67.40
2023-03-17T07:45:07.921Z,67.80
2023-03-17T07:59:52.810Z,67.70
2023-03-17T08:02:21.147Z,67.40
2023-03-17T08:04:48.122Z,67.30
2023-03-17T08:14:37.741Z,67.40
2023-03-17T08:19:32.151Z,67.30
2023-03-17T08:29:21.305Z,67.00
2023-03-17T08:36:43.494Z,66.70
2023-03-17T08:41:38.564Z,66.40
2023-03-17T08:44:05.816Z,66.20
2023-03-17T08:46:33.112Z,66.10
2023-03-17T08:49:00.952Z,66.10
2023-03-17T08:51:31.258Z,65.90
2023-03-17T08:53:59.000Z,65.80
2023-03-17T09:03:52.768Z,65.80
2023-03-17T09:06:20.207Z,65.80
2023-03-17T09:11:20.341Z,65.80
2023-03-17T09:13:47.838Z,65.70
2023-03-17T09:16:16.218Z,65.60
2023-03-17T09:21:12.550Z,65.60
2023-03-17T09:23:39.863Z,65.40
2023-03-17T09:31:06.354Z,65.60
2023-03-17T09:33:33.242Z,65.60
2023-03-17T09:38:28.033Z,65.20
2023-03-17T09:41:04.982Z,65.20
2023-03-17T09:46:25.062Z,64.80
2023-03-17T09:49:22.820Z,64.50
2023-03-17T09:51:50.094Z,64.40
2023-03-17T09:54:49.610Z,63.70
2023-03-17T09:57:32.978Z,65.10
2023-03-17T10:00:09.870Z,63.80
2023-03-17T10:02:37.861Z,65.60
2023-03-17T10:05:22.264Z,65.70
2023-03-17T10:07:49.576Z,64.80
2023-03-17T10:10:29.370Z,66.00
2023-03-17T10:13:10.523Z,66.90
2023-03-17T10:15:55.528Z,64.90
2023-03-17T10:18:27.934Z,66.10
2023-03-17T10:21:02.274Z,65.00
2023-03-17T10:23:33.505Z,64.70
2023-03-17T10:26:17.306Z,64.30
2023-03-17T10:28:44.306Z,64.30
2023-03-17T10:31:16.555Z,64.40
2023-03-17T10:33:46.959Z,63.70
2023-03-17T10:36:16.701Z,64.30
2023-03-17T10:38:56.494Z,63.90
2023-03-17T10:41:23.432Z,62.70
2023-03-17T10:43:53.683Z,64.20
2023-03-17T10:46:25.833Z,63.50
2023-03-17T10:49:02.182Z,63.20
2023-03-17T10:51:32.493Z,63.40
2023-03-17T10:54:17.774Z,63.20
2023-03-17T10:56:48.898Z,63.10
2023-03-17T10:59:32.510Z,62.60
2023-03-17T11:02:01.442Z,62.20
2023-03-17T11:04:32.137Z,61.80
2023-03-17T11:07:04.969Z,61.90
2023-03-17T11:09:36.798Z,61.60
2023-03-17T11:12:08.969Z,61.30
2023-03-17T11:17:16.424Z,60.80
2023-03-17T11:20:04.846Z,58.60
2023-03-17T11:22:40.141Z,58.70
2023-03-17T11:25:19.665Z,60.70
2023-03-17T11:30:34.038Z,60.30
2023-03-17T11:33:38.443Z,60.30
2023-03-17T11:36:43.386Z,60.40
2023-03-17T11:39:17.153Z,60.60
2023-03-17T11:41:59.559Z,60.30
2023-03-17T11:47:05.277Z,59.90
2023-03-17T11:49:37.661Z,59.90
2023-03-17T11:52:28.580Z,59.80
2023-03-17T11:55:21.572Z,59.70
2023-03-17T11:58:01.505Z,59.80
2023-03-17T12:00:43.941Z,59.80
2023-03-17T12:03:25.398Z,60.00
2023-03-17T12:05:58.240Z,60.20
2023-03-17T12:08:40.836Z,59.90
2023-03-17T12:11:12.355Z,59.60
2023-03-17T12:16:20.254Z,58.70
2023-03-17T12:19:23.266Z,58.30
2023-03-17T12:21:59.412Z,58.20
2023-03-17T12:24:40.363Z,57.90
2023-03-17T12:27:32.038Z,57.40
2023-03-17T12:30:05.434Z,57.30
2023-03-17T12:32:44.019Z,54.90
2023-03-17T12:35:32.016Z,56.10
2023-03-17T12:38:01.444Z,56.10
2023-03-17T12:40:36.581Z,55.70
2023-03-17T12:43:27.741Z,55.50
2023-03-17T12:46:16.079Z,55.30
2023-03-17T12:49:04.943Z,54.80
2023-03-17T12:52:14.391Z,54.50
2023-03-17T12:54:46.735Z,54.30
2023-03-17T12:57:24.272Z,52.10
2023-03-17T13:00:05.659Z,54.00
2023-03-17T13:02:41.272Z,53.80
2023-03-17T13:05:16.544Z,53.90
2023-03-17T13:07:51.492Z,53.50
2023-03-17T13:10:42.896Z,51.20
2023-03-17T13:13:41.271Z,53.10
2023-03-17T13:16:28.052Z,53.50
2023-03-17T13:19:14.644Z,52.90
2023-03-17T13:21:50.622Z,52.50
2023-03-17T13:24:18.030Z,51.50
2023-03-17T13:27:01.988Z,53.10
2023-03-17T13:29:35.487Z,52.50
2023-03-17T13:32:26.819Z,51.70
2023-03-17T13:35:13.394Z,51.50
2023-03-17T13:38:09.854Z,51.40
2023-03-17T13:40:55.849Z,51.20
2023-03-17T13:43:43.493Z,51.00
2023-03-17T13:46:34.096Z,50.90
2023-03-17T13:49:26.763Z,50.70
2023-03-17T13:52:15.636Z,50.90
2023-03-17T13:54:49.677Z,50.70
2023-03-17T13:57:35.314Z,50.30
2023-03-17T14:00:15.107Z,50.50
2023-03-17T14:02:43.520Z,50.30
2023-03-17T14:05:29.781Z,50.30
2023-03-17T14:08:03.792Z,50.40
2023-03-17T14:10:32.657Z,49.90
2023-03-17T14:13:08.587Z,50.00
2023-03-17T14:15:56.351Z,49.40
2023-03-17T14:18:51.934Z,49.70
2023-03-17T14:21:24.423Z,49.60
2023-03-17T14:24:01.447Z,49.50
2023-03-17T14:26:31.247Z,49.60
2023-03-17T14:29:04.845Z,49.40
2023-03-17T14:31:31.986Z,49.40
2023-03-17T14:34:00.454Z,49.40
2023-03-17T14:36:28.780Z,49.20
2023-03-17T14:38:57.275Z,49.40
2023-03-17T14:41:28.897Z,49.60
2023-03-17T14:44:00.394Z,49.50
2023-03-17T14:46:32.032Z,49.50
2023-03-17T14:49:00.818Z,49.60
2023-03-17T14:54:00.136Z,49.20
2023-03-17T14:56:35.006Z,49.20
2023-03-17T14:59:18.519Z,49.10
2023-03-17T15:01:48.487Z,49.00
2023-03-17T15:04:17.119Z,48.60
2023-03-17T15:06:56.311Z,48.30
2023-03-17T15:09:40.763Z,46.30
2023-03-17T15:12:18.946Z,48.50
2023-03-17T15:14:46.544Z,48.40
2023-03-17T15:17:28.783Z,48.30
2023-03-17T15:19:59.914Z,48.50
2023-03-17T15:22:36.156Z,48.40
2023-03-17T15:25:38.709Z,48.40
2023-03-17T15:28:16.508Z,48.50
2023-03-17T15:30:48.192Z,48.60
2023-03-17T15:33:30.552Z,48.90
2023-03-17T15:36:00.019Z,48.70
2023-03-17T15:40:54.562Z,48.60
2023-03-17T15:43:22.600Z,48.70
2023-03-17T15:46:03.321Z,48.50
2023-03-17T15:48:35.156Z,48.60
2023-03-17T15:51:04.511Z,48.60
2023-03-17T15:53:32.201Z,48.30
2023-03-17T16:01:00.068Z,48.20
2023-03-17T16:03:29.332Z,48.10
2023-03-17T16:08:24.897Z,48.10
2023-03-17T16:13:19.691Z,48.50
2023-03-17T16:15:58.208Z,48.70
2023-03-17T16:18:33.522Z,48.60
2023-03-17T16:21:01.422Z,48.80
2023-03-17T16:23:32.166Z,48.80
2023-03-17T16:28:43.086Z,49.30
2023-03-17T16:31:29.283Z,49.40
2023-03-17T16:33:57.072Z,49.60
2023-03-17T16:36:25.565Z,47.60
2023-03-17T16:38:52.629Z,49.60
2023-03-17T16:41:25.561Z,49.70
2023-03-17T16:43:57.768Z,49.70
2023-03-17T16:46:27.238Z,49.90
2023-03-17T16:48:54.256Z,50.00
2023-03-17T16:51:21.233Z,50.20
2023-03-17T16:53:48.386Z,50.30
2023-03-17T16:56:21.447Z,50.60
2023-03-17T16:58:49.188Z,50.70
2023-03-17T17:01:27.840Z,50.90
2023-03-17T17:03:55.750Z,51.20
2023-03-17T17:06:24.027Z,51.50
2023-03-17T17:08:51.277Z,51.60
2023-03-17T17:11:19.944Z,51.80
2023-03-17T17:13:48.710Z,52.10
2023-03-17T17:16:29.169Z,52.30
2023-03-17T17:21:23.631Z,52.50
2023-03-17T17:33:42.702Z,53.30
2023-03-17T17:36:15.126Z,53.30
2023-03-17T17:38:42.944Z,53.50
2023-03-17T17:41:12.077Z,53.60
2023-03-17T17:43:39.593Z,53.70
2023-03-17T17:46:18.549Z,53.70
2023-03-17T17:48:46.554Z,53.80
2023-03-17T17:51:13.648Z,53.90
2023-03-17T17:56:11.052Z,54.10
2023-03-17T17:58:37.834Z,54.20
2023-03-17T18:01:05.580Z,54.30
2023-03-17T18:03:32.518Z,54.60
2023-03-17T18:06:00.926Z,53.40
2023-03-17T18:08:27.806Z,55.00
2023-03-17T18:10:56.666Z,55.10
2023-03-17T18:13:23.846Z,55.20
2023-03-17T18:18:18.980Z,55.30
2023-03-17T18:20:46.144Z,55.40
2023-03-17T18:33:10.770Z,56.00
2023-03-17T18:35:38.386Z,56.00
2023-03-17T18:45:29.039Z,56.20
2023-03-17T18:47:56.128Z,56.20
2023-03-17T18:57:47.272Z,56.30
2023-03-17T19:00:18.735Z,56.50
2023-03-17T19:02:46.564Z,56.50
2023-03-17T19:05:14.548Z,56.50
2023-03-17T19:07:42.258Z,56.40
2023-03-17T19:10:12.234Z,56.40
2023-03-17T19:15:08.902Z,56.70
2023-03-17T19:20:04.382Z,56.80
2023-03-17T19:29:54.323Z,57.50
2023-03-17T19:32:21.533Z,57.50
2023-03-17T19:42:12.795Z,57.80
2023-03-17T19:44:40.175Z,57.90
2023-03-17T19:47:08.386Z,58.10
2023-03-17T19:49:37.595Z,58.20
2023-03-17T19:52:06.422Z,58.30
2023-03-17T19:54:33.884Z,58.20
2023-03-17T20:01:55.869Z,58.40
2023-03-17T20:09:24.699Z,58.60
2023-03-17T20:14:20.969Z,58.80
2023-03-17T20:16:48.365Z,58.70
2023-03-17T20:19:16.424Z,58.70
2023-03-17T20:21:43.948Z,58.70
2023-03-17T20:24:12.895Z,58.80
2023-03-17T20:26:41.302Z,58.70
2023-03-17T20:31:38.554Z,58.90
2023-03-17T20:39:00.446Z,59.20
2023-03-17T20:46:24.259Z,59.30
2023-03-17T20:51:26.492Z,59.30
2023-03-17T20:53:55.180Z,59.30
2023-03-17T20:56:24.461Z,59.30
2023-03-17T20:58:53.289Z,59.50
2023-03-17T21:01:21.766Z,59.50
2023-03-17T21:03:49.220Z,59.30
2023-03-17T21:06:16.756Z,59.30
2023-03-17T21:08:43.991Z,59.40
2023-03-17T21:11:17.960Z,59.50
2023-03-17T21:16:21.514Z,59.60
2023-03-17T21:18:48.452Z,60.10
2023-03-17T21:23:43.926Z,59.70
2023-03-17T21:26:11.294Z,59.60
2023-03-17T21:28:41.348Z,59.70
2023-03-17T21:31:09.871Z,59.80
2023-03-17T21:33:37.257Z,59.90
2023-03-17T21:36:04.885Z,60.00
2023-03-17T21:38:32.183Z,60.10
2023-03-17T21:41:17.534Z,60.10
2023-03-17T21:46:14.714Z,60.30
2023-03-17T21:51:08.870Z,60.30
2023-03-17T22:10:51.663Z,60.30
2023-03-17T22:13:18.618Z,60.50
2023-03-17T22:18:12.843Z,60.30
2023-03-17T22:20:39.740Z,60.40
2023-03-17T22:25:33.864Z,60.50
2023-03-17T22:30:28.235Z,60.60
2023-03-17T22:32:55.307Z,60.60
2023-03-17T22:35:23.445Z,60.70
2023-03-17T22:40:19.096Z,60.70
2023-03-17T22:45:13.605Z,60.60
2023-03-17T22:50:08.686Z,60.60
2023-03-17T22:57:31.452Z,60.50
2023-03-17T22:59:59.171Z,60.60
2023-03-17T23:04:53.597Z,60.80
2023-03-17T23:14:43.742Z,60.40
2023-03-17T23:19:38.072Z,60.30
2023-03-17T23:22:04.956Z,60.40
2023-03-17T23:29:28.077Z,60.20
2023-03-17T23:46:41.110Z,60.80
2023-03-17T23:56:37.025Z,60.60
2023-03-17T23:59:04.143Z,60.60
